createdAt,value
2022-10-15T00:04:41.582Z,100385.78
2022-10-15T00:09:56.802Z,100381.75
2022-10-15T00:15:11.790Z,100383.44
2022-10-15T00:20:27.139Z,100373.03
2022-10-15T00:25:42.735Z,100381.06
2022-10-15T00:30:58.143Z,100376.75
2022-10-15T00:36:13.743Z,100363.06
2022-10-15T00:41:28.764Z,100365.84
2022-10-15T00:46:44.076Z,100363.81
2022-10-15T00:51:59.744Z,100371.41
2022-10-15T00:57:14.730Z,100367.88
2022-10-15T01:02:29.795Z,100361.56
2022-10-15T01:07:44.826Z,100361.56
2022-10-15T01:13:00.215Z,100371.41
2022-10-15T01:18:16.104Z,100365.84
2022-10-15T01:23:32.035Z,100362.81
2022-10-15T01:28:47.561Z,100351.47
2022-10-15T01:34:02.579Z,100337.88
2022-10-15T01:39:17.763Z,100334.84
2022-10-15T01:44:34.022Z,100339.72
2022-10-15T01:49:53.756Z,100342.72
2022-10-15T01:55:08.774Z,100330.59
2022-10-15T02:00:24.061Z,100327.06
2022-10-15T02:05:44.104Z,100322.59
2022-10-15T02:10:59.785Z,100315.28
2022-10-15T02:16:14.778Z,100321.84
2022-10-15T02:21:34.052Z,100319.03
2022-10-15T02:26:50.081Z,100301.75
2022-10-15T02:32:05.751Z,100307.31
2022-10-15T02:37:21.780Z,100301.56
2022-10-15T02:42:36.519Z,100297.25
2022-10-15T02:47:53.064Z,100292.25
2022-10-15T02:53:08.829Z,100281.63
2022-10-15T02:58:25.975Z,100278.09
2022-10-15T03:03:41.824Z,100278.84
2022-10-15T03:08:57.089Z,100271.00
2022-10-15T03:14:13.732Z,100261.94
2022-10-15T03:19:28.819Z,100251.50
2022-10-15T03:24:43.826Z,100248.50
2022-10-15T03:30:05.127Z,100245.72
2022-10-15T03:35:21.074Z,100242.94
2022-10-15T03:40:37.090Z,100228.25
2022-10-15T03:46:00.768Z,100235.09
2022-10-15T03:51:23.477Z,100232.56
2022-10-15T03:56:53.056Z,100242.59
2022-10-15T04:02:13.758Z,100237.78
2022-10-15T04:07:29.159Z,100240.91
2022-10-15T04:12:47.075Z,100255.59
2022-10-15T04:18:02.756Z,100249.28
2022-10-15T04:23:18.784Z,100258.41
2022-10-15T04:28:53.175Z,100254.84
2022-10-15T04:34:10.026Z,100257.28
2022-10-15T04:39:30.832Z,100267.91
2022-10-15T04:44:45.785Z,100265.84
2022-10-15T04:50:01.060Z,100267.91
2022-10-15T04:55:34.799Z,100265.13
2022-10-15T05:00:50.143Z,100266.81
2022-10-15T05:06:25.766Z,100256.59
2022-10-15T05:11:50.107Z,100261.09
2022-10-15T05:17:07.805Z,100266.69
2022-10-15T05:22:25.109Z,100261.31
2022-10-15T05:27:42.782Z,100262.06
2022-10-15T05:32:57.795Z,100260.00
2022-10-15T05:38:18.780Z,100264.28
2022-10-15T05:43:36.177Z,100262.78
2022-10-15T05:49:03.853Z,100257.97
2022-10-15T05:54:29.089Z,100278.22
2022-10-15T05:59:45.099Z,100269.84
2022-10-15T06:05:00.759Z,100263.00
2022-10-15T06:10:15.783Z,100265.22
2022-10-15T06:15:30.782Z,100258.94
2022-10-15T06:20:46.819Z,100247.97
2022-10-15T06:26:01.805Z,100248.72
2022-10-15T06:31:17.395Z,100247.00
2022-10-15T06:36:32.790Z,100257.78
2022-10-15T06:41:47.784Z,100265.38
2022-10-15T06:47:03.066Z,100251.22
2022-10-15T06:52:18.849Z,100265.72
2022-10-15T06:57:33.815Z,100254.34
2022-10-15T07:02:48.772Z,100248.59
2022-10-15T07:08:04.194Z,100249.09
2022-10-15T07:13:20.146Z,100256.53
2022-10-15T07:18:35.917Z,100264.72
2022-10-15T07:23:50.808Z,100276.38
2022-10-15T07:29:05.591Z,100276.91
2022-10-15T07:34:21.217Z,100271.91
2022-10-15T07:39:40.646Z,100273.94
2022-10-15T07:44:57.358Z,100268.19
2022-10-15T07:50:13.136Z,100256.78
2022-10-15T07:55:29.094Z,100251.75
2022-10-15T08:00:44.571Z,100262.19
2022-10-15T08:06:00.098Z,100265.50
2022-10-15T08:11:15.795Z,100264.75
2022-10-15T08:16:31.133Z,100243.75
2022-10-15T08:21:47.603Z,100245.06
2022-10-15T08:27:02.795Z,100235.94
2022-10-15T08:32:18.547Z,100234.44
2022-10-15T08:37:33.920Z,100216.22
2022-10-15T08:42:48.799Z,100230.91
2022-10-15T08:48:03.596Z,100223.09
2022-10-15T08:53:18.839Z,100216.78
2022-10-15T08:58:38.282Z,100216.03
2022-10-15T09:03:55.812Z,100204.88
2022-10-15T09:09:48.845Z,100197.06
2022-10-15T09:15:03.801Z,100197.81
2022-10-15T09:20:18.839Z,100181.66
2022-10-15T09:25:35.836Z,100188.69
2022-10-15T09:30:51.772Z,100181.66
2022-10-15T09:36:06.788Z,100166.94
2022-10-15T09:41:21.791Z,100167.72
2022-10-15T09:46:36.793Z,100162.16
2022-10-15T09:51:51.777Z,100151.19
2022-10-15T09:57:07.111Z,100146.91
2022-10-15T10:02:23.008Z,100140.03
2022-10-15T10:07:40.125Z,100157.28
2022-10-15T10:12:55.810Z,100133.72
2022-10-15T10:18:11.845Z,100138.75
2022-10-15T10:23:27.119Z,100142.06
2022-10-15T10:28:44.331Z,100134.47
2022-10-15T10:33:59.802Z,100130.19
2022-10-15T10:39:15.868Z,100124.59
2022-10-15T10:44:31.111Z,100124.59
2022-10-15T10:49:47.110Z,100116.25
2022-10-15T10:55:03.118Z,100123.13
2022-10-15T11:00:18.817Z,100123.84
2022-10-15T11:05:33.849Z,100119.38
2022-10-15T11:10:49.056Z,100117.56
2022-10-15T11:16:04.844Z,100112.50
2022-10-15T11:21:19.846Z,100115.28
2022-10-15T11:26:46.068Z,100092.25
2022-10-15T11:32:21.054Z,100088.72
2022-10-15T11:37:37.889Z,100097.81
2022-10-15T11:42:53.092Z,100088.72
2022-10-15T11:48:10.145Z,100092.25
2022-10-15T11:53:25.573Z,100087.97
2022-10-15T11:58:40.592Z,100081.47
2022-10-15T12:03:55.614Z,100086.50
2022-10-15T12:09:10.807Z,100073.69
2022-10-15T12:14:26.029Z,100074.59
2022-10-15T12:19:41.878Z,100069.03
2022-10-15T12:24:56.887Z,100080.94
2022-10-15T12:30:13.686Z,100069.78
2022-10-15T12:35:30.833Z,100063.47
2022-10-15T12:40:45.811Z,100063.47
2022-10-15T12:46:00.875Z,100070.53
2022-10-15T12:51:15.811Z,100069.78
2022-10-15T12:56:30.827Z,100073.31
2022-10-15T13:01:45.566Z,100071.81
2022-10-15T13:07:00.850Z,100064.22
2022-10-15T13:12:15.821Z,100073.84
2022-10-15T13:17:30.800Z,100069.56
2022-10-15T13:22:45.889Z,100072.34
2022-10-15T13:28:00.834Z,100089.06
2022-10-15T13:33:15.830Z,100088.31
2022-10-15T13:38:30.820Z,100090.41
2022-10-15T13:43:45.893Z,100103.34
2022-10-15T13:49:01.220Z,100111.91
2022-10-15T13:54:15.889Z,100110.63
2022-10-15T13:59:30.798Z,100118.25
2022-10-15T14:04:45.793Z,100126.63
2022-10-15T14:10:00.814Z,100125.09
2022-10-15T14:15:15.818Z,100126.38
2022-10-15T14:20:30.839Z,100128.63
2022-10-15T14:25:46.116Z,100147.38
2022-10-15T14:31:01.872Z,100146.63
2022-10-15T14:36:16.849Z,100160.56
2022-10-15T14:41:31.949Z,100159.81
2022-10-15T14:46:46.859Z,100175.03
2022-10-15T14:52:01.873Z,100180.59
2022-10-15T14:57:16.834Z,100188.22
2022-10-15T15:02:32.298Z,100201.59
2022-10-15T15:07:47.844Z,100197.31
2022-10-15T15:13:02.860Z,100201.97
2022-10-15T15:18:17.874Z,100218.84
2022-10-15T15:23:32.840Z,100218.84
2022-10-15T15:28:48.219Z,100225.19
2022-10-15T15:34:03.892Z,100224.44
2022-10-15T15:39:18.854Z,100234.84
2022-10-15T15:44:33.800Z,100235.56
2022-10-15T15:49:48.813Z,100234.84
2022-10-15T15:55:03.825Z,100246.00
2022-10-15T16:00:18.839Z,100246.00
2022-10-15T16:05:33.843Z,100258.44
2022-10-15T16:10:49.154Z,100264.00
2022-10-15T16:16:04.865Z,100264.75
2022-10-15T16:21:19.862Z,100268.81
2022-10-15T16:26:34.884Z,100283.50
2022-10-15T16:31:49.584Z,100285.53
2022-10-15T16:37:05.153Z,100293.16
2022-10-15T16:42:20.831Z,100299.47
2022-10-15T16:47:35.834Z,100309.88
2022-10-15T16:52:51.877Z,100311.16
2022-10-15T16:58:06.846Z,100310.63
2022-10-15T17:03:22.221Z,100319.28
2022-10-15T17:08:37.837Z,100335.47
2022-10-15T17:13:52.837Z,100335.78
2022-10-15T17:19:07.868Z,100343.09
2022-10-15T17:24:22.918Z,100352.72
2022-10-15T17:29:37.843Z,100373.72
2022-10-15T17:34:53.190Z,100372.97
2022-10-15T17:40:10.209Z,100379.84
2022-10-15T17:45:25.828Z,100383.91
2022-10-15T17:50:45.220Z,100392.25
2022-10-15T18:01:23.660Z,100404.72
2022-10-15T18:06:48.891Z,100389.47
2022-10-15T18:12:06.840Z,100401.94
2022-10-15T18:17:22.399Z,100418.00
2022-10-15T18:22:38.884Z,100429.03
2022-10-15T18:27:53.923Z,100433.84
2022-10-15T18:33:08.884Z,100443.50
2022-10-15T18:38:24.202Z,100442.22
2022-10-15T18:43:39.241Z,100449.81
2022-10-15T18:48:54.856Z,100441.47
2022-10-15T18:54:11.869Z,100453.88
2022-10-15T18:59:26.910Z,100449.81
2022-10-15T19:04:44.098Z,100434.38
2022-10-15T19:09:59.879Z,100448.28
2022-10-15T19:15:14.839Z,100459.44
2022-10-15T19:20:29.873Z,100460.75
2022-10-15T19:25:44.830Z,100469.81
2022-10-15T19:30:59.861Z,100457.22
2022-10-15T19:36:17.602Z,100469.09
2022-10-15T19:41:32.859Z,100472.41
2022-10-15T19:46:47.942Z,100472.41
2022-10-15T19:52:02.847Z,100478.00
2022-10-15T19:57:19.818Z,100476.72
2022-10-15T20:02:34.926Z,100485.59
2022-10-15T20:07:50.099Z,100489.13
2022-10-15T20:13:05.908Z,100483.56
2022-10-15T20:18:20.872Z,100477.25
2022-10-15T20:23:35.853Z,100477.25
2022-10-15T20:28:51.268Z,100491.91
2022-10-15T20:34:06.844Z,100486.34
2022-10-15T20:39:21.885Z,100493.94
2022-10-15T20:44:36.893Z,100499.75
2022-10-15T20:49:52.824Z,100514.31
2022-10-15T20:55:07.825Z,100519.06
2022-10-15T21:00:22.856Z,100519.25
2022-10-15T21:05:37.857Z,100521.28
2022-10-15T21:10:52.880Z,100532.13
2022-10-15T21:16:07.846Z,100536.59
2022-10-15T21:21:22.839Z,100546.47
2022-10-15T21:26:37.888Z,100541.88
2022-10-15T21:31:52.885Z,100548.19
2022-10-15T21:37:07.858Z,100554.00
2022-10-15T21:42:23.075Z,100554.19
2022-10-15T21:47:39.116Z,100560.50
2022-10-15T21:52:55.888Z,100567.06
2022-10-15T21:58:11.171Z,100563.00
2022-10-15T22:03:26.861Z,100563.00
2022-10-15T22:08:41.853Z,100578.44
2022-10-15T22:13:56.913Z,100569.50
2022-10-15T22:19:11.837Z,100575.84
2022-10-15T22:24:26.841Z,100573.06
2022-10-15T22:29:41.956Z,100574.56
2022-10-15T22:34:56.842Z,100578.88
2022-10-15T22:45:26.924Z,100573.50
2022-10-15T22:50:41.867Z,100581.34
2022-10-15T22:55:56.863Z,100575.00
2022-10-15T23:01:11.982Z,100578.53
2022-10-15T23:06:26.824Z,100588.41
2022-10-15T23:11:41.593Z,100594.19
2022-10-15T23:16:56.871Z,100602.78
2022-10-15T23:22:12.189Z,100605.03
2022-10-15T23:27:28.158Z,100610.59
2022-10-15T23:32:44.070Z,100598.69
2022-10-15T23:38:00.143Z,100585.31
2022-10-15T23:43:15.826Z,100584.00
2022-10-15T23:48:31.140Z,100571.38
2022-10-15T23:53:47.171Z,100581.03
2022-10-15T23:59:04.165Z,100587.09
